sensor_id;sensor_type;location;lat;lon;timestamp;pressure;altitude;pressure_sealevel;temperature;humidity
48964;BME280;34776;48.180;16.420;2023-04-10T00:01:44;100698.97;;;7.17;73.03
48964;BME280;34776;48.180;16.420;2023-04-10T00:04:09;100691.97;;;7.16;73.16
48964;BME280;34776;48.180;16.420;2023-04-10T00:06:35;100697.31;;;7.13;73.16
48964;BME280;34776;48.180;16.420;2023-04-10T00:09:00;100690.31;;;7.10;73.34
48964;BME280;34776;48.180;16.420;2023-04-10T00:11:26;100696.59;;;7.06;73.53
48964;BME280;34776;48.180;16.420;2023-04-10T00:13:52;100692.25;;;7.04;73.59
48964;BME280;34776;48.180;16.420;2023-04-10T00:16:18;100692.25;;;7.04;73.74
48964;BME280;34776;48.180;16.420;2023-04-10T00:18:43;100686.03;;;7.06;73.76
48964;BME280;34776;48.180;16.420;2023-04-10T00:21:08;100689.53;;;7.05;73.67
48964;BME280;34776;48.180;16.420;2023-04-10T00:23:34;100690.47;;;7.04;73.73
48964;BME280;34776;48.180;16.420;2023-04-10T00:26:00;100685.09;;;7.07;73.62
48964;BME280;34776;48.180;16.420;2023-04-10T00:28:26;100692.16;;;7.07;73.66
48964;BME280;34776;48.180;16.420;2023-04-10T00:30:51;100680.72;;;7.06;73.52
48964;BME280;34776;48.180;16.420;2023-04-10T00:33:16;100674.59;;;7.06;73.82
48964;BME280;34776;48.180;16.420;2023-04-10T00:35:42;100676.31;;;7.07;73.79
48964;BME280;34776;48.180;16.420;2023-04-10T00:38:07;100691.31;;;7.06;73.91
48964;BME280;34776;48.180;16.420;2023-04-10T00:40:32;100686.88;;;7.07;74.02
48964;BME280;34776;48.180;16.420;2023-04-10T00:42:59;100686.81;;;7.10;73.86
48964;BME280;34776;48.180;16.420;2023-04-10T00:45:25;100687.69;;;7.10;73.86
48964;BME280;34776;48.180;16.420;2023-04-10T00:47:51;100684.06;;;7.15;73.69
48964;BME280;34776;48.180;16.420;2023-04-10T00:50:16;100680.50;;;7.16;73.74
48964;BME280;34776;48.180;16.420;2023-04-10T00:52:42;100684.09;;;7.13;73.58
48964;BME280;34776;48.180;16.420;2023-04-10T00:55:07;100688.44;;;7.16;73.73
48964;BME280;34776;48.180;16.420;2023-04-10T00:57:33;100674.34;;;7.15;73.75
48964;BME280;34776;48.180;16.420;2023-04-10T00:59:59;100683.13;;;7.17;73.80
48964;BME280;34776;48.180;16.420;2023-04-10T01:02:24;100674.34;;;7.17;73.73
48964;BME280;34776;48.180;16.420;2023-04-10T01:04:50;100676.13;;;7.16;73.68
48964;BME280;34776;48.180;16.420;2023-04-10T01:10:19;100680.31;;;7.25;73.60
48964;BME280;34776;48.180;16.420;2023-04-10T01:16:50;100678.56;;;7.24;73.39
48964;BME280;34776;48.180;16.420;2023-04-10T01:18:52;100675.16;;;7.19;73.24
48964;BME280;34776;48.180;16.420;2023-04-10T01:21:20;100682.16;;;7.20;73.26
48964;BME280;34776;48.180;16.420;2023-04-10T01:29:17;100674.19;;;7.23;73.34
48964;BME280;34776;48.180;16.420;2023-04-10T01:31:49;100680.31;;;7.25;73.25
48964;BME280;34776;48.180;16.420;2023-04-10T01:34:23;100675.88;;;7.25;73.38
48964;BME280;34776;48.180;16.420;2023-04-10T01:36:59;100682.03;;;7.26;73.16
48964;BME280;34776;48.180;16.420;2023-04-10T01:39:29;100682.94;;;7.25;73.37
48964;BME280;34776;48.180;16.420;2023-04-10T01:41:56;100675.06;;;7.22;73.30
48964;BME280;34776;48.180;16.420;2023-04-10T01:44:24;100679.47;;;7.23;73.52
48964;BME280;34776;48.180;16.420;2023-04-10T01:46:53;100682.13;;;7.23;73.37
48964;BME280;34776;48.180;16.420;2023-04-10T01:49:20;100684.69;;;7.24;73.34
48964;BME280;34776;48.180;16.420;2023-04-10T01:51:47;100675.03;;;7.25;73.37
48964;BME280;34776;48.180;16.420;2023-04-10T01:54:14;100680.31;;;7.25;73.24
48964;BME280;34776;48.180;16.420;2023-04-10T01:56:40;100677.66;;;7.25;73.26
48964;BME280;34776;48.180;16.420;2023-04-10T01:59:06;100675.03;;;7.25;73.23
48964;BME280;34776;48.180;16.420;2023-04-10T02:01:32;100675.06;;;7.22;73.07
48964;BME280;34776;48.180;16.420;2023-04-10T02:03:58;100674.19;;;7.23;73.25
48964;BME280;34776;48.180;16.420;2023-04-10T02:07:06;100682.13;;;7.23;73.25
48964;BME280;34776;48.180;16.420;2023-04-10T02:09:24;100683.97;;;7.18;73.35
48964;BME280;34776;48.180;16.420;2023-04-10T02:12:08;100681.44;;;7.15;73.34
48964;BME280;34776;48.180;16.420;2023-04-10T02:14:37;100677.13;;;7.10;73.25
48964;BME280;34776;48.180;16.420;2023-04-10T02:17:05;100680.72;;;7.06;73.41
48964;BME280;34776;48.180;16.420;2023-04-10T02:19:33;100679.88;;;7.06;73.42
48964;BME280;34776;48.180;16.420;2023-04-10T02:21:59;100671.06;;;7.05;73.48
48964;BME280;34776;48.180;16.420;2023-04-10T02:24:26;100669.31;;;7.04;73.37
48964;BME280;34776;48.180;16.420;2023-04-10T02:26:52;100670.22;;;7.03;73.40
48964;BME280;34776;48.180;16.420;2023-04-10T02:29:18;100675.59;;;7.00;73.31
48964;BME280;34776;48.180;16.420;2023-04-10T02:31:44;100677.47;;;6.95;73.47
48964;BME280;34776;48.180;16.420;2023-04-10T02:34:10;100675.81;;;6.91;73.67
48964;BME280;34776;48.180;16.420;2023-04-10T02:36:37;100670.56;;;6.88;73.63
48964;BME280;34776;48.180;16.420;2023-04-10T02:39:04;100671.50;;;6.85;73.89
48964;BME280;34776;48.180;16.420;2023-04-10T02:41:30;100672.47;;;6.83;74.07
48964;BME280;34776;48.180;16.420;2023-04-10T02:43:55;100672.47;;;6.83;74.00
48964;BME280;34776;48.180;16.420;2023-04-10T02:46:21;100664.59;;;6.80;74.03
48964;BME280;34776;48.180;16.420;2023-04-10T02:48:46;100670.72;;;6.80;74.08
48964;BME280;34776;48.180;16.420;2023-04-10T02:51:12;100666.38;;;6.79;74.06
48964;BME280;34776;48.180;16.420;2023-04-10T02:53:37;100673.44;;;6.79;74.16
48964;BME280;34776;48.180;16.420;2023-04-10T02:56:03;100668.19;;;6.77;74.20
48964;BME280;34776;48.180;16.420;2023-04-10T02:58:30;100674.31;;;6.78;74.29
48964;BME280;34776;48.180;16.420;2023-04-10T03:00:56;100667.31;;;6.77;74.20
48964;BME280;34776;48.180;16.420;2023-04-10T03:03:22;100669.09;;;6.76;74.33
48964;BME280;34776;48.180;16.420;2023-04-10T03:05:47;100670.91;;;6.74;74.26
48964;BME280;34776;48.180;16.420;2023-04-10T03:08:14;100669.16;;;6.71;74.27
48964;BME280;34776;48.180;16.420;2023-04-10T03:10:43;100664.84;;;6.67;74.33
48964;BME280;34776;48.180;16.420;2023-04-10T03:13:08;100671.94;;;6.65;74.60
48964;BME280;34776;48.180;16.420;2023-04-10T03:15:33;100668.47;;;6.63;74.68
48964;BME280;34776;48.180;16.420;2023-04-10T03:17:59;100663.25;;;6.60;74.75
48964;BME280;34776;48.180;16.420;2023-04-10T03:20:24;100665.06;;;6.58;74.91
48964;BME280;34776;48.180;16.420;2023-04-10T03:22:50;100664.22;;;6.56;75.18
48964;BME280;34776;48.180;16.420;2023-04-10T03:25:16;100665.16;;;6.54;75.09
48964;BME280;34776;48.180;16.420;2023-04-10T03:27:41;100666.09;;;6.51;75.09
48964;BME280;34776;48.180;16.420;2023-04-10T03:30:07;100659.94;;;6.50;74.98
48964;BME280;34776;48.180;16.420;2023-04-10T03:32:32;100666.16;;;6.48;75.20
48964;BME280;34776;48.180;16.420;2023-04-10T03:34:57;100661.81;;;6.45;75.19
48964;BME280;34776;48.180;16.420;2023-04-10T03:37:23;100660.06;;;6.44;74.88
48964;BME280;34776;48.180;16.420;2023-04-10T03:39:48;100671.56;;;6.42;75.31
48964;BME280;34776;48.180;16.420;2023-04-10T03:42:14;100668.06;;;6.40;75.51
48964;BME280;34776;48.180;16.420;2023-04-10T03:44:39;100667.31;;;6.35;75.64
48964;BME280;34776;48.180;16.420;2023-04-10T03:47:04;100667.31;;;6.35;75.71
48964;BME280;34776;48.180;16.420;2023-04-10T03:49:30;100660.25;;;6.35;75.61
48964;BME280;34776;48.180;16.420;2023-04-10T03:51:55;100666.47;;;6.33;75.59
48964;BME280;34776;48.180;16.420;2023-04-10T03:54:20;100658.66;;;6.28;75.57
48964;BME280;34776;48.180;16.420;2023-04-10T03:56:46;100656.09;;;6.23;75.46
48964;BME280;34776;48.180;16.420;2023-04-10T03:59:11;100659.69;;;6.19;75.65
48964;BME280;34776;48.180;16.420;2023-04-10T04:01:36;100654.47;;;6.16;75.95
48964;BME280;34776;48.180;16.420;2023-04-10T04:04:03;100666.84;;;6.13;75.96
48964;BME280;34776;48.180;16.420;2023-04-10T04:06:29;100671.28;;;6.12;76.02
48964;BME280;34776;48.180;16.420;2023-04-10T04:08:55;100666.91;;;6.11;75.97
48964;BME280;34776;48.180;16.420;2023-04-10T04:11:20;100671.38;;;6.07;76.17
48964;BME280;34776;48.180;16.420;2023-04-10T04:13:45;100681.06;;;6.07;75.83
48964;BME280;34776;48.180;16.420;2023-04-10T04:16:11;100681.09;;;6.04;76.37
48964;BME280;34776;48.180;16.420;2023-04-10T04:18:36;100681.97;;;6.04;76.19
48964;BME280;34776;48.180;16.420;2023-04-10T04:21:02;100682.00;;;6.03;76.31
48964;BME280;34776;48.180;16.420;2023-04-10T04:23:27;100681.09;;;6.04;76.21
48964;BME280;34776;48.180;16.420;2023-04-10T04:25:53;100686.41;;;6.02;76.38
48964;BME280;34776;48.180;16.420;2023-04-10T04:28:20;100677.63;;;6.02;76.60
48964;BME280;34776;48.180;16.420;2023-04-10T04:30:45;100684.66;;;6.03;76.49
48964;BME280;34776;48.180;16.420;2023-04-10T04:33:10;100681.97;;;6.04;76.32
48964;BME280;34776;48.180;16.420;2023-04-10T04:35:36;100682.84;;;6.05;76.55
48964;BME280;34776;48.180;16.420;2023-04-10T04:38:01;100695.97;;;6.08;76.89
48964;BME280;34776;48.180;16.420;2023-04-10T04:40:26;100686.25;;;6.12;76.46
48964;BME280;34776;48.180;16.420;2023-04-10T04:42:52;100691.44;;;6.16;76.35
48964;BME280;34776;48.180;16.420;2023-04-10T04:45:17;100693.09;;;6.20;76.21
48964;BME280;34776;48.180;16.420;2023-04-10T04:47:42;100691.22;;;6.25;76.29
48964;BME280;34776;48.180;16.420;2023-04-10T04:50:08;100701.66;;;6.32;76.14
48964;BME280;34776;48.180;16.420;2023-04-10T04:52:33;100696.28;;;6.38;76.24
48964;BME280;34776;48.180;16.420;2023-04-10T04:54:59;100699.72;;;6.43;75.90
48964;BME280;34776;48.180;16.420;2023-04-10T04:57:25;100694.31;;;6.49;75.83
48964;BME280;34776;48.180;16.420;2023-04-10T04:59:50;100706.47;;;6.56;75.59
48964;BME280;34776;48.180;16.420;2023-04-10T05:02:15;100703.72;;;6.62;75.43
48964;BME280;34776;48.180;16.420;2023-04-10T05:04:43;100706.28;;;6.65;75.35
48964;BME280;34776;48.180;16.420;2023-04-10T05:07:08;100707.94;;;6.69;75.30
48964;BME280;34776;48.180;16.420;2023-04-10T05:09:33;100704.34;;;6.74;75.38
48964;BME280;34776;48.180;16.420;2023-04-10T05:11:59;100701.56;;;6.80;75.08
48964;BME280;34776;48.180;16.420;2023-04-10T05:14:24;100696.25;;;6.81;75.16
48964;BME280;34776;48.180;16.420;2023-04-10T05:16:49;100712.94;;;6.85;74.85
48964;BME280;34776;48.180;16.420;2023-04-10T05:19:15;100704.81;;;6.93;74.88
48964;BME280;34776;48.180;16.420;2023-04-10T05:21:40;100709.00;;;7.01;74.70
48964;BME280;34776;48.180;16.420;2023-04-10T05:24:05;100714.22;;;7.06;74.51
48964;BME280;34776;48.180;16.420;2023-04-10T05:26:31;100713.16;;;7.13;74.66
48964;BME280;34776;48.180;16.420;2023-04-10T05:28:56;100723.59;;;7.19;74.15
48964;BME280;34776;48.180;16.420;2023-04-10T05:31:21;100722.47;;;7.31;73.98
48964;BME280;34776;48.180;16.420;2023-04-10T05:33:47;100726.63;;;7.41;73.67
48964;BME280;34776;48.180;16.420;2023-04-10T05:36:12;100724.56;;;7.54;73.35
48964;BME280;34776;48.180;16.420;2023-04-10T05:38:38;100726.09;;;7.64;72.97
48964;BME280;34776;48.180;16.420;2023-04-10T05:41:03;100725.91;;;7.70;72.54
48964;BME280;34776;48.180;16.420;2023-04-10T05:43:29;100730.19;;;7.76;72.52
48964;BME280;34776;48.180;16.420;2023-04-10T05:45:54;100730.94;;;7.81;72.30
48964;BME280;34776;48.180;16.420;2023-04-10T05:48:19;100730.69;;;7.90;72.06
48964;BME280;34776;48.180;16.420;2023-04-10T05:50:45;100733.03;;;8.03;72.09
48964;BME280;34776;48.180;16.420;2023-04-10T05:53:17;100729.19;;;8.14;71.91
48964;BME280;34776;48.180;16.420;2023-04-10T05:55:43;100730.75;;;8.23;71.58
48964;BME280;34776;48.180;16.420;2023-04-10T05:58:08;100733.94;;;8.34;71.13
48964;BME280;34776;48.180;16.420;2023-04-10T06:00:33;100731.16;;;8.41;70.87
48964;BME280;34776;48.180;16.420;2023-04-10T06:02:58;100734.59;;;8.44;70.80
48964;BME280;34776;48.180;16.420;2023-04-10T06:05:24;100729.16;;;8.50;70.79
48964;BME280;34776;48.180;16.420;2023-04-10T06:07:50;100737.53;;;8.65;70.43
48964;BME280;34776;48.180;16.420;2023-04-10T06:10:15;100723.09;;;8.77;69.97
48964;BME280;34776;48.180;16.420;2023-04-10T06:12:41;100737.81;;;8.87;69.86
48964;BME280;34776;48.180;16.420;2023-04-10T06:15:07;100738.25;;;9.01;69.71
48964;BME280;34776;48.180;16.420;2023-04-10T06:17:32;100744.03;;;9.16;68.83
48964;BME280;34776;48.180;16.420;2023-04-10T06:19:57;100742.94;;;9.21;68.33
48964;BME280;34776;48.180;16.420;2023-04-10T06:22:25;100747.00;;;9.33;68.35
48964;BME280;34776;48.180;16.420;2023-04-10T06:24:50;100748.19;;;9.51;68.05
48964;BME280;34776;48.180;16.420;2023-04-10T06:27:16;100752.03;;;9.70;67.56
48964;BME280;34776;48.180;16.420;2023-04-10T06:29:41;100750.13;;;10.01;66.74
48964;BME280;34776;48.180;16.420;2023-04-10T06:32:06;100743.91;;;10.27;65.74
48964;BME280;34776;48.180;16.420;2023-04-10T06:34:32;100739.94;;;10.40;65.24
48964;BME280;34776;48.180;16.420;2023-04-10T06:36:57;100737.34;;;10.62;65.09
48964;BME280;34776;48.180;16.420;2023-04-10T06:39:22;100734.50;;;10.92;63.96
48964;BME280;34776;48.180;16.420;2023-04-10T06:41:49;100756.19;;;11.27;62.85
48964;BME280;34776;48.180;16.420;2023-04-10T06:44:14;100752.16;;;11.16;62.72
48964;BME280;34776;48.180;16.420;2023-04-10T06:46:39;100744.78;;;11.23;62.73
48964;BME280;34776;48.180;16.420;2023-04-10T06:49:05;100752.34;;;11.12;62.36
48964;BME280;34776;48.180;16.420;2023-04-10T06:51:31;100750.31;;;10.95;62.69
48964;BME280;34776;48.180;16.420;2023-04-10T06:53:56;100753.34;;;10.86;63.04
48964;BME280;34776;48.180;16.420;2023-04-10T06:56:21;100749.56;;;10.91;63.24
48964;BME280;34776;48.180;16.420;2023-04-10T06:58:47;100757.66;;;11.12;62.79
48964;BME280;34776;48.180;16.420;2023-04-10T07:01:12;100762.59;;;12.52;60.17
48964;BME280;34776;48.180;16.420;2023-04-10T07:03:37;100750.69;;;14.61;55.79
48964;BME280;34776;48.180;16.420;2023-04-10T07:06:03;100753.38;;;15.74;52.76
48964;BME280;34776;48.180;16.420;2023-04-10T07:13:38;100747.47;;;18.52;45.73
48964;BME280;34776;48.180;16.420;2023-04-10T07:16:05;100744.19;;;19.60;45.50
48964;BME280;34776;48.180;16.420;2023-04-10T07:18:32;100734.16;;;21.14;42.42
48964;BME280;34776;48.180;16.420;2023-04-10T07:20:58;100736.44;;;22.28;40.75
48964;BME280;34776;48.180;16.420;2023-04-10T07:23:23;100731.38;;;23.97;38.31
48964;BME280;34776;48.180;16.420;2023-04-10T07:25:48;100733.06;;;25.49;36.14
48964;BME280;34776;48.180;16.420;2023-04-10T07:28:15;100737.06;;;26.70;33.27
48964;BME280;34776;48.180;16.420;2023-04-10T07:30:40;100735.31;;;26.43;33.51
48964;BME280;34776;48.180;16.420;2023-04-10T07:35:41;100731.47;;;27.49;30.53
48964;BME280;34776;48.180;16.420;2023-04-10T07:38:06;100726.78;;;27.25;33.79
48964;BME280;34776;48.180;16.420;2023-04-10T07:40:32;100732.09;;;26.48;33.00
48964;BME280;34776;48.180;16.420;2023-04-10T07:42:57;100730.66;;;25.46;33.07
48964;BME280;34776;48.180;16.420;2023-04-10T07:45:24;100730.28;;;24.66;33.47
48964;BME280;34776;48.180;16.420;2023-04-10T07:47:51;100742.66;;;23.32;34.93
48964;BME280;34776;48.180;16.420;2023-04-10T07:50:17;100739.22;;;23.90;35.45
48964;BME280;34776;48.180;16.420;2023-04-10T07:52:42;100722.47;;;24.53;33.11
48964;BME280;34776;48.180;16.420;2023-04-10T07:55:08;100721.97;;;22.39;35.47
48964;BME280;34776;48.180;16.420;2023-04-10T07:57:34;100729.31;;;23.50;34.89
48964;BME280;34776;48.180;16.420;2023-04-10T07:59:59;100723.00;;;26.39;32.24
48964;BME280;34776;48.180;16.420;2023-04-10T08:02:25;100728.06;;;28.94;28.89
48964;BME280;34776;48.180;16.420;2023-04-10T08:04:50;100717.94;;;29.74;27.64
48964;BME280;34776;48.180;16.420;2023-04-10T08:07:18;100719.44;;;28.42;27.70
48964;BME280;34776;48.180;16.420;2023-04-10T08:09:43;100729.94;;;26.07;29.25
48964;BME280;34776;48.180;16.420;2023-04-10T08:12:08;100727.13;;;24.61;31.21
48964;BME280;34776;48.180;16.420;2023-04-10T08:14:34;100734.06;;;23.17;32.08
48964;BME280;34776;48.180;16.420;2023-04-10T08:16:59;100739.72;;;23.64;32.96
48964;BME280;34776;48.180;16.420;2023-04-10T08:19:25;100737.16;;;25.81;31.10
48964;BME280;34776;48.180;16.420;2023-04-10T08:21:50;100727.91;;;27.14;28.69
48964;BME280;34776;48.180;16.420;2023-04-10T08:24:16;100726.78;;;28.41;27.29
48964;BME280;34776;48.180;16.420;2023-04-10T08:26:43;100728.53;;;29.46;26.31
48964;BME280;34776;48.180;16.420;2023-04-10T08:29:09;100723.31;;;28.80;26.32
48964;BME280;34776;48.180;16.420;2023-04-10T08:31:34;100731.59;;;28.23;26.89
48964;BME280;34776;48.180;16.420;2023-04-10T08:34:00;100730.72;;;28.22;26.92
48964;BME280;34776;48.180;16.420;2023-04-10T08:36:26;100733.63;;;28.37;27.18
48964;BME280;34776;48.180;16.420;2023-04-10T08:38:51;100721.84;;;29.09;26.33
48964;BME280;34776;48.180;16.420;2023-04-10T08:41:18;100726.63;;;29.07;25.59
48964;BME280;34776;48.180;16.420;2023-04-10T08:43:44;100721.66;;;28.05;26.08
48964;BME280;34776;48.180;16.420;2023-04-10T08:46:13;100723.66;;;27.70;26.15
48964;BME280;34776;48.180;16.420;2023-04-10T08:48:46;100717.56;;;26.91;25.45
48964;BME280;34776;48.180;16.420;2023-04-10T08:51:19;100724.44;;;27.38;25.50
48964;BME280;34776;48.180;16.420;2023-04-10T08:53:49;100713.75;;;27.69;25.99
48964;BME280;34776;48.180;16.420;2023-04-10T08:56:16;100705.97;;;27.99;26.18
48964;BME280;34776;48.180;16.420;2023-04-10T08:58:42;100702.00;;;28.59;25.64
48964;BME280;34776;48.180;16.420;2023-04-10T09:01:08;100705.50;;;28.84;24.98
48964;BME280;34776;48.180;16.420;2023-04-10T09:03:35;100702.72;;;27.87;25.74
48964;BME280;34776;48.180;16.420;2023-04-10T09:06:01;100702.47;;;27.48;26.20
48964;BME280;34776;48.180;16.420;2023-04-10T09:08:28;100692.94;;;27.77;26.53
48964;BME280;34776;48.180;16.420;2023-04-10T09:10:53;100686.09;;;29.10;24.90
48964;BME280;34776;48.180;16.420;2023-04-10T09:13:40;100681.66;;;28.53;23.69
48964;BME280;34776;48.180;16.420;2023-04-10T09:16:06;100689.75;;;27.89;25.71
48964;BME280;34776;48.180;16.420;2023-04-10T09:18:47;100691.72;;;27.54;25.22
48964;BME280;34776;48.180;16.420;2023-04-10T09:21:15;100691.41;;;27.58;26.04
48964;BME280;34776;48.180;16.420;2023-04-10T09:23:42;100686.78;;;26.73;26.86
48964;BME280;34776;48.180;16.420;2023-04-10T09:29:04;100682.56;;;24.91;27.24
48964;BME280;34776;48.180;16.420;2023-04-10T09:31:32;100686.69;;;23.21;31.67
48964;BME280;34776;48.180;16.420;2023-04-10T09:34:06;100681.41;;;21.31;33.68
48964;BME280;34776;48.180;16.420;2023-04-10T09:36:32;100684.03;;;20.53;35.79
48964;BME280;34776;48.180;16.420;2023-04-10T09:38:58;100691.06;;;19.74;37.09
48964;BME280;34776;48.180;16.420;2023-04-10T09:41:23;100689.41;;;18.99;37.80
48964;BME280;34776;48.180;16.420;2023-04-10T09:43:48;100679.22;;;18.27;38.52
48964;BME280;34776;48.180;16.420;2023-04-10T09:46:25;100674.56;;;18.03;38.99
48964;BME280;34776;48.180;16.420;2023-04-10T09:48:55;100666.81;;;18.12;39.68
48964;BME280;34776;48.180;16.420;2023-04-10T09:51:31;100672.16;;;17.59;39.43
48964;BME280;34776;48.180;16.420;2023-04-10T09:53:56;100665.44;;;17.39;40.14
48964;BME280;34776;48.180;16.420;2023-04-10T09:56:24;100661.69;;;17.14;40.73
48964;BME280;34776;48.180;16.420;2023-04-10T09:58:53;100654.34;;;17.03;41.10
48964;BME280;34776;48.180;16.420;2023-04-10T10:01:23;100658.41;;;17.09;41.34
48964;BME280;34776;48.180;16.420;2023-04-10T10:03:50;100662.56;;;17.00;41.95
48964;BME280;34776;48.180;16.420;2023-04-10T10:06:16;100655.97;;;16.63;42.14
48964;BME280;34776;48.180;16.420;2023-04-10T10:08:42;100650.03;;;16.43;42.69
48964;BME280;34776;48.180;16.420;2023-04-10T10:11:08;100648.69;;;16.08;42.76
48964;BME280;34776;48.180;16.420;2023-04-10T10:13:49;100651.56;;;15.74;43.46
48964;BME280;34776;48.180;16.420;2023-04-10T10:16:41;100656.69;;;15.47;44.31
48964;BME280;34776;48.180;16.420;2023-04-10T10:21:43;100652.66;;;15.40;45.08
48964;BME280;34776;48.180;16.420;2023-04-10T10:24:09;100650.41;;;15.48;45.64
48964;BME280;34776;48.180;16.420;2023-04-10T10:26:39;100647.78;;;15.62;45.24
48964;BME280;34776;48.180;16.420;2023-04-10T10:29:07;100645.31;;;15.43;45.14
48964;BME280;34776;48.180;16.420;2023-04-10T10:31:37;100635.88;;;15.52;45.42
48964;BME280;34776;48.180;16.420;2023-04-10T10:34:03;100630.16;;;15.58;45.48
48964;BME280;34776;48.180;16.420;2023-04-10T10:36:31;100622.34;;;15.70;45.31
48964;BME280;34776;48.180;16.420;2023-04-10T10:42:59;100620.28;;;15.75;45.35
48964;BME280;34776;48.180;16.420;2023-04-10T10:45:10;100618.72;;;15.71;45.47
48964;BME280;34776;48.180;16.420;2023-04-10T10:47:46;100617.63;;;15.89;44.94
48964;BME280;34776;48.180;16.420;2023-04-10T10:50:13;100612.50;;;16.00;44.99
48964;BME280;34776;48.180;16.420;2023-04-10T10:52:41;100614.19;;;16.01;45.00
48964;BME280;34776;48.180;16.420;2023-04-10T10:58:02;100603.28;;;16.19;44.65
48964;BME280;34776;48.180;16.420;2023-04-10T11:03:27;100587.00;;;16.51;44.07
48964;BME280;34776;48.180;16.420;2023-04-10T11:05:56;100593.59;;;16.74;44.11
48964;BME280;34776;48.180;16.420;2023-04-10T11:08:46;100583.25;;;16.53;43.60
48964;BME280;34776;48.180;16.420;2023-04-10T11:11:14;100584.41;;;16.49;44.39
48964;BME280;34776;48.180;16.420;2023-04-10T11:13:42;100583.75;;;16.46;44.04
48964;BME280;34776;48.180;16.420;2023-04-10T11:21:25;100574.72;;;16.61;43.78
48964;BME280;34776;48.180;16.420;2023-04-10T11:31:38;100552.41;;;17.02;42.88
48964;BME280;34776;48.180;16.420;2023-04-10T11:34:08;100550.81;;;17.12;42.33
48964;BME280;34776;48.180;16.420;2023-04-10T11:36:39;100550.94;;;17.23;42.66
48964;BME280;34776;48.180;16.420;2023-04-10T11:39:06;100547.88;;;17.42;42.55
48964;BME280;34776;48.180;16.420;2023-04-10T11:41:35;100553.25;;;17.55;42.48
48964;BME280;34776;48.180;16.420;2023-04-10T11:44:02;100548.66;;;17.57;41.24
48964;BME280;34776;48.180;16.420;2023-04-10T11:46:29;100544.91;;;17.73;41.20
48964;BME280;34776;48.180;16.420;2023-04-10T11:48:59;100533.19;;;17.74;41.46
48964;BME280;34776;48.180;16.420;2023-04-10T11:51:25;100539.31;;;17.76;40.81
48964;BME280;34776;48.180;16.420;2023-04-10T11:54:14;100528.13;;;17.56;40.25
48964;BME280;34776;48.180;16.420;2023-04-10T11:56:42;100532.09;;;17.63;41.29
48964;BME280;34776;48.180;16.420;2023-04-10T11:59:08;100526.38;;;17.55;41.04
48964;BME280;34776;48.180;16.420;2023-04-10T12:01:40;100521.00;;;17.55;41.53
48964;BME280;34776;48.180;16.420;2023-04-10T12:04:19;100514.69;;;17.56;40.80
48964;BME280;34776;48.180;16.420;2023-04-10T12:09:19;100506.63;;;17.56;40.82
48964;BME280;34776;48.180;16.420;2023-04-10T12:11:53;100517.59;;;17.79;40.25
48964;BME280;34776;48.180;16.420;2023-04-10T12:14:27;100514.78;;;17.80;40.69
48964;BME280;34776;48.180;16.420;2023-04-10T12:16:53;100521.25;;;17.78;40.51
48964;BME280;34776;48.180;16.420;2023-04-10T12:19:23;100517.63;;;18.04;40.13
48964;BME280;34776;48.180;16.420;2023-04-10T12:21:48;100503.25;;;18.30;39.77
48964;BME280;34776;48.180;16.420;2023-04-10T12:27:18;100501.03;;;18.11;38.45
48964;BME280;34776;48.180;16.420;2023-04-10T12:29:48;100497.25;;;18.26;39.19
48964;BME280;34776;48.180;16.420;2023-04-10T12:32:13;100492.44;;;18.05;39.22
48964;BME280;34776;48.180;16.420;2023-04-10T12:34:39;100490.28;;;18.11;40.01
48964;BME280;34776;48.180;16.420;2023-04-10T12:37:05;100479.53;;;18.11;40.16
48964;BME280;34776;48.180;16.420;2023-04-10T12:39:31;100483.91;;;18.12;39.88
48964;BME280;34776;48.180;16.420;2023-04-10T12:42:17;100469.59;;;18.24;38.92
48964;BME280;34776;48.180;16.420;2023-04-10T12:47:19;100459.75;;;19.08;38.49
48964;BME280;34776;48.180;16.420;2023-04-10T12:50:07;100464.94;;;18.63;38.08
48964;BME280;34776;48.180;16.420;2023-04-10T12:52:35;100466.97;;;17.98;39.15
48964;BME280;34776;48.180;16.420;2023-04-10T12:55:14;100462.75;;;17.81;38.37
48964;BME280;34776;48.180;16.420;2023-04-10T12:57:41;100457.03;;;18.12;39.13
48964;BME280;34776;48.180;16.420;2023-04-10T13:00:08;100452.66;;;18.35;39.10
48964;BME280;34776;48.180;16.420;2023-04-10T13:02:35;100438.69;;;18.54;37.87
48964;BME280;34776;48.180;16.420;2023-04-10T13:05:01;100435.78;;;18.81;37.91
48964;BME280;34776;48.180;16.420;2023-04-10T13:07:26;100435.63;;;19.06;37.55
48964;BME280;34776;48.180;16.420;2023-04-10T13:09:51;100430.75;;;19.00;37.59
48964;BME280;34776;48.180;16.420;2023-04-10T13:12:17;100431.06;;;18.96;37.12
48964;BME280;34776;48.180;16.420;2023-04-10T13:14:42;100427.41;;;18.97;37.50
48964;BME280;34776;48.180;16.420;2023-04-10T13:17:07;100425.41;;;18.88;37.43
48964;BME280;34776;48.180;16.420;2023-04-10T13:19:33;100421.09;;;19.09;37.29
48964;BME280;34776;48.180;16.420;2023-04-10T13:21:58;100421.94;;;19.21;36.84
48964;BME280;34776;48.180;16.420;2023-04-10T13:24:25;100417.94;;;19.38;36.34
48964;BME280;34776;48.180;16.420;2023-04-10T13:26:50;100413.28;;;19.29;36.82
48964;BME280;34776;48.180;16.420;2023-04-10T13:29:16;100412.66;;;19.14;36.34
48964;BME280;34776;48.180;16.420;2023-04-10T13:31:41;100406.34;;;19.02;36.57
48964;BME280;34776;48.180;16.420;2023-04-10T13:34:06;100409.13;;;19.36;36.66
48964;BME280;34776;48.180;16.420;2023-04-10T13:36:32;100395.53;;;19.60;35.94
48964;BME280;34776;48.180;16.420;2023-04-10T13:38:57;100397.88;;;19.64;35.96
48964;BME280;34776;48.180;16.420;2023-04-10T13:41:23;100397.63;;;19.45;35.95